sensor_id;sensor_type;location;lat;lon;timestamp;pressure;altitude;pressure_sealevel;temperature;humidity
2036;BME280;23642;42.658;23.350;2022-10-31T00:00:05;55263.88;;;-146.31;52.96
2036;BME280;23642;42.658;23.350;2022-10-31T00:02:32;55274.19;;;-146.31;53.78
2036;BME280;23642;42.658;23.350;2022-10-31T00:04:58;55251.47;;;-146.31;53.38
2036;BME280;23642;42.658;23.350;2022-10-31T00:07:25;55257.66;;;-146.31;53.63
2036;BME280;23642;42.658;23.350;2022-10-31T00:09:53;55270.06;;;-146.31;53.48
2036;BME280;23642;42.658;23.350;2022-10-31T00:12:20;55239.06;;;-146.31;53.46
2036;BME280;23642;42.658;23.350;2022-10-31T00:14:47;55224.63;;;-146.31;53.72
2036;BME280;23642;42.658;23.350;2022-10-31T00:17:14;55234.94;;;-146.31;54.16
2036;BME280;23642;42.658;23.350;2022-10-31T00:19:40;55268.00;;;-146.31;54.09
2036;BME280;23642;42.658;23.350;2022-10-31T00:22:07;55232.88;;;-146.31;54.11
2036;BME280;23642;42.658;23.350;2022-10-31T00:24:34;55249.41;;;-146.31;53.66
2036;BME280;23642;42.658;23.350;2022-10-31T00:27:02;55234.94;;;-146.31;53.64
2036;BME280;23642;42.658;23.350;2022-10-31T00:29:28;55222.56;;;-146.31;53.68
2036;BME280;23642;42.658;23.350;2022-10-31T00:31:55;55218.44;;;-146.31;53.73
2036;BME280;23642;42.658;23.350;2022-10-31T00:34:22;55234.94;;;-146.31;53.73
2036;BME280;23642;42.658;23.350;2022-10-31T00:36:48;55232.88;;;-146.31;54.14
2036;BME280;23642;42.658;23.350;2022-10-31T00:39:15;55243.22;;;-146.31;54.01
2036;BME280;23642;42.658;23.350;2022-10-31T00:41:42;55241.16;;;-146.31;54.14
2036;BME280;23642;42.658;23.350;2022-10-31T00:44:10;55245.28;;;-146.31;54.91
2036;BME280;23642;42.658;23.350;2022-10-31T00:46:37;55251.47;;;-146.31;54.93
2036;BME280;23642;42.658;23.350;2022-10-31T00:49:03;55274.19;;;-146.31;55.46
2036;BME280;23642;42.658;23.350;2022-10-31T00:51:30;55274.19;;;-146.31;56.31
2036;BME280;23642;42.658;23.350;2022-10-31T00:53:57;55263.88;;;-146.31;55.21
2036;BME280;23642;42.658;23.350;2022-10-31T00:56:23;55259.72;;;-146.31;55.26
2036;BME280;23642;42.658;23.350;2022-10-31T00:58:50;55263.88;;;-146.31;55.84
2036;BME280;23642;42.658;23.350;2022-10-31T01:01:18;55251.47;;;-146.31;55.83
2036;BME280;23642;42.658;23.350;2022-10-31T01:03:45;55274.19;;;-146.31;56.01
2036;BME280;23642;42.658;23.350;2022-10-31T01:06:12;55224.63;;;-146.31;55.81
2036;BME280;23642;42.658;23.350;2022-10-31T01:08:39;55230.81;;;-146.31;55.13
2036;BME280;23642;42.658;23.350;2022-10-31T01:11:08;55226.69;;;-146.31;54.63
2036;BME280;23642;42.658;23.350;2022-10-31T01:13:37;55249.41;;;-146.31;55.11
2036;BME280;23642;42.658;23.350;2022-10-31T01:16:05;55230.81;;;-146.31;54.87
2036;BME280;23642;42.658;23.350;2022-10-31T01:18:33;55245.28;;;-146.31;55.21
2036;BME280;23642;42.658;23.350;2022-10-31T01:21:03;55232.88;;;-146.31;55.69
2036;BME280;23642;42.658;23.350;2022-10-31T01:23:30;55265.94;;;-146.31;55.99
2036;BME280;23642;42.658;23.350;2022-10-31T01:26:02;55243.22;;;-146.31;55.59
2036;BME280;23642;42.658;23.350;2022-10-31T01:28:30;55226.69;;;-146.31;55.31
2036;BME280;23642;42.658;23.350;2022-10-31T01:31:00;55263.88;;;-146.31;55.53
2036;BME280;23642;42.658;23.350;2022-10-31T01:33:28;55259.72;;;-146.31;55.38
2036;BME280;23642;42.658;23.350;2022-10-31T01:35:56;55261.78;;;-146.31;55.73
2036;BME280;23642;42.658;23.350;2022-10-31T01:38:23;55245.28;;;-146.31;56.09
2036;BME280;23642;42.658;23.350;2022-10-31T01:40:50;55228.75;;;-146.31;55.66
2036;BME280;23642;42.658;23.350;2022-10-31T01:43:17;55228.75;;;-146.31;56.29
2036;BME280;23642;42.658;23.350;2022-10-31T01:45:47;55282.44;;;-146.31;57.06
2036;BME280;23642;42.658;23.350;2022-10-31T01:48:19;55278.31;;;-146.31;57.70
2036;BME280;23642;42.658;23.350;2022-10-31T01:50:48;55253.53;;;-146.31;58.02
2036;BME280;23642;42.658;23.350;2022-10-31T01:53:18;55286.59;;;-146.31;57.99
2036;BME280;23642;42.658;23.350;2022-10-31T01:55:46;55268.00;;;-146.31;58.23
2036;BME280;23642;42.658;23.350;2022-10-31T01:58:15;55261.78;;;-146.31;58.98
2036;BME280;23642;42.658;23.350;2022-10-31T02:00:47;55272.13;;;-146.31;59.29
2036;BME280;23642;42.658;23.350;2022-10-31T02:03:16;55284.50;;;-146.31;59.81
2036;BME280;23642;42.658;23.350;2022-10-31T02:05:44;55288.66;;;-146.31;60.86
2036;BME280;23642;42.658;23.350;2022-10-31T02:08:14;55265.94;;;-146.31;60.75
2036;BME280;23642;42.658;23.350;2022-10-31T02:10:44;55268.00;;;-146.31;60.68
2036;BME280;23642;42.658;23.350;2022-10-31T02:13:12;55228.75;;;-146.31;60.12
2036;BME280;23642;42.658;23.350;2022-10-31T02:15:40;55251.47;;;-146.31;60.18
2036;BME280;23642;42.658;23.350;2022-10-31T02:18:09;55270.06;;;-146.31;59.41
2036;BME280;23642;42.658;23.350;2022-10-31T02:20:43;55251.47;;;-146.31;59.73
2036;BME280;23642;42.658;23.350;2022-10-31T02:23:54;55255.59;;;-146.31;60.10
2036;BME280;23642;42.658;23.350;2022-10-31T02:26:41;55230.81;;;-146.31;60.28
2036;BME280;23642;42.658;23.350;2022-10-31T02:29:28;55237.00;;;-146.31;60.86
2036;BME280;23642;42.658;23.350;2022-10-31T02:32:09;55239.06;;;-146.31;61.20
2036;BME280;23642;42.658;23.350;2022-10-31T02:34:44;55237.00;;;-146.31;60.54
2036;BME280;23642;42.658;23.350;2022-10-31T02:37:19;55228.75;;;-146.31;60.96
2036;BME280;23642;42.658;23.350;2022-10-31T02:39:53;55257.66;;;-146.31;61.88
2036;BME280;23642;42.658;23.350;2022-10-31T02:42:28;55241.16;;;-146.31;61.14
2036;BME280;23642;42.658;23.350;2022-10-31T02:45:02;55234.94;;;-146.31;61.52
2036;BME280;23642;42.658;23.350;2022-10-31T02:47:36;55253.53;;;-146.31;62.02
2036;BME280;23642;42.658;23.350;2022-10-31T02:50:07;55245.28;;;-146.31;62.52
2036;BME280;23642;42.658;23.350;2022-10-31T02:52:35;55234.94;;;-146.31;63.24
2036;BME280;23642;42.658;23.350;2022-10-31T02:55:10;55191.56;;;-146.31;63.48
2036;BME280;23642;42.658;23.350;2022-10-31T02:57:40;55168.84;;;-146.31;63.00
2036;BME280;23642;42.658;23.350;2022-10-31T03:00:09;55179.19;;;-146.31;63.07
2036;BME280;23642;42.658;23.350;2022-10-31T03:02:51;55158.53;;;-146.31;63.68
2036;BME280;23642;42.658;23.350;2022-10-31T03:05:49;55168.84;;;-146.31;63.91
2036;BME280;23642;42.658;23.350;2022-10-31T03:08:23;55137.88;;;-146.31;62.75
2036;BME280;23642;42.658;23.350;2022-10-31T03:10:55;55127.56;;;-146.31;62.12
2036;BME280;23642;42.658;23.350;2022-10-31T03:13:31;55142.00;;;-146.31;62.81
2036;BME280;23642;42.658;23.350;2022-10-31T03:16:06;55173.00;;;-146.31;62.96
2036;BME280;23642;42.658;23.350;2022-10-31T03:18:39;55133.75;;;-146.31;63.15
2036;BME280;23642;42.658;23.350;2022-10-31T03:21:10;55144.06;;;-146.31;63.05
2036;BME280;23642;42.658;23.350;2022-10-31T03:23:40;55127.56;;;-146.31;62.90
2036;BME280;23642;42.658;23.350;2022-10-31T03:26:09;55148.22;;;-146.31;63.60
2036;BME280;23642;42.658;23.350;2022-10-31T03:28:41;55150.28;;;-146.31;64.30
2036;BME280;23642;42.658;23.350;2022-10-31T03:31:12;55131.69;;;-146.31;64.98
2036;BME280;23642;42.658;23.350;2022-10-31T03:33:45;55053.22;;;-146.31;64.41
2036;BME280;23642;42.658;23.350;2022-10-31T03:36:14;55047.00;;;-146.31;63.94
2036;BME280;23642;42.658;23.350;2022-10-31T03:38:43;55013.97;;;-146.31;62.73
2036;BME280;23642;42.658;23.350;2022-10-31T03:41:16;55065.59;;;-146.31;62.52
2036;BME280;23642;42.658;23.350;2022-10-31T03:43:49;55047.00;;;-146.31;63.32
2036;BME280;23642;42.658;23.350;2022-10-31T03:46:20;55061.47;;;-146.31;64.33
2036;BME280;23642;42.658;23.350;2022-10-31T03:48:49;55061.47;;;-146.31;65.00
2036;BME280;23642;42.658;23.350;2022-10-31T03:51:20;55030.50;;;-146.31;65.79
2036;BME280;23642;42.658;23.350;2022-10-31T03:53:53;55007.78;;;-146.31;65.35
2036;BME280;23642;42.658;23.350;2022-10-31T03:56:27;54995.38;;;-146.31;65.08
2036;BME280;23642;42.658;23.350;2022-10-31T03:59:00;54989.19;;;-146.31;66.79
2036;BME280;23642;42.658;23.350;2022-10-31T04:01:30;54985.06;;;-146.31;68.44
2036;BME280;23642;42.658;23.350;2022-10-31T04:04:00;54933.44;;;-146.31;69.15
2036;BME280;23642;42.658;23.350;2022-10-31T04:06:29;54902.44;;;-146.31;70.78
2036;BME280;23642;42.658;23.350;2022-10-31T04:09:01;54869.41;;;-146.31;71.53
2036;BME280;23642;42.658;23.350;2022-10-31T04:11:32;54844.63;;;-146.31;71.78
2036;BME280;23642;42.658;23.350;2022-10-31T04:14:02;54826.03;;;-146.31;71.61
2036;BME280;23642;42.658;23.350;2022-10-31T04:16:30;54813.66;;;-146.31;72.30
2036;BME280;23642;42.658;23.350;2022-10-31T04:18:57;54803.31;;;-146.31;72.05
2036;BME280;23642;42.658;23.350;2022-10-31T04:21:29;54772.34;;;-146.31;70.06
2036;BME280;23642;42.658;23.350;2022-10-31T04:23:57;54776.47;;;-146.31;68.85
2036;BME280;23642;42.658;23.350;2022-10-31T04:26:24;54770.28;;;-146.31;68.91
2036;BME280;23642;42.658;23.350;2022-10-31T04:28:51;54770.28;;;-146.31;69.45
2036;BME280;23642;42.658;23.350;2022-10-31T04:31:18;54799.19;;;-146.31;70.14
2036;BME280;23642;42.658;23.350;2022-10-31T04:33:45;54795.06;;;-146.31;70.56
2036;BME280;23642;42.658;23.350;2022-10-31T04:36:12;54786.81;;;-146.31;70.97
2036;BME280;23642;42.658;23.350;2022-10-31T04:38:40;54799.19;;;-146.31;71.38
2036;BME280;23642;42.658;23.350;2022-10-31T04:41:07;54755.84;;;-146.31;71.03
2036;BME280;23642;42.658;23.350;2022-10-31T04:43:34;54770.28;;;-146.31;71.25
2036;BME280;23642;42.658;23.350;2022-10-31T04:46:00;54770.28;;;-146.31;70.86
2036;BME280;23642;42.658;23.350;2022-10-31T04:48:27;54764.09;;;-146.31;70.53
2036;BME280;23642;42.658;23.350;2022-10-31T04:50:58;54757.91;;;-146.31;70.35
2036;BME280;23642;42.658;23.350;2022-10-31T04:53:25;54749.63;;;-146.31;70.35
2036;BME280;23642;42.658;23.350;2022-10-31T04:55:53;54745.50;;;-146.31;70.23
2036;BME280;23642;42.658;23.350;2022-10-31T04:58:19;54728.97;;;-146.31;68.62
2036;BME280;23642;42.658;23.350;2022-10-31T05:00:46;54745.50;;;-146.31;68.58
2036;BME280;23642;42.658;23.350;2022-10-31T05:03:13;54735.19;;;-146.31;69.26
2036;BME280;23642;42.658;23.350;2022-10-31T05:05:41;54768.22;;;-146.31;69.32
2036;BME280;23642;42.658;23.350;2022-10-31T05:08:07;54749.63;;;-146.31;70.92
2036;BME280;23642;42.658;23.350;2022-10-31T05:10:34;54753.75;;;-146.31;71.13
2036;BME280;23642;42.658;23.350;2022-10-31T05:13:03;54757.91;;;-146.31;71.40
2036;BME280;23642;42.658;23.350;2022-10-31T05:15:30;54757.91;;;-146.31;71.44
2036;BME280;23642;42.658;23.350;2022-10-31T05:17:57;54726.91;;;-146.31;71.90
2036;BME280;23642;42.658;23.350;2022-10-31T05:20:25;54726.91;;;-146.31;71.60
2036;BME280;23642;42.658;23.350;2022-10-31T05:22:55;54751.69;;;-146.31;71.27
2036;BME280;23642;42.658;23.350;2022-10-31T05:25:23;54712.47;;;-146.31;70.74
2036;BME280;23642;42.658;23.350;2022-10-31T05:27:52;54728.97;;;-146.31;70.42
2036;BME280;23642;42.658;23.350;2022-10-31T05:30:22;54714.53;;;-146.31;69.85
2036;BME280;23642;42.658;23.350;2022-10-31T05:32:50;54741.38;;;-146.31;69.42
2036;BME280;23642;42.658;23.350;2022-10-31T05:35:19;54728.97;;;-146.31;70.47
2036;BME280;23642;42.658;23.350;2022-10-31T05:37:46;54724.84;;;-146.31;70.51
2036;BME280;23642;42.658;23.350;2022-10-31T05:40:14;54747.56;;;-146.31;71.77
2036;BME280;23642;42.658;23.350;2022-10-31T05:42:42;54714.53;;;-146.31;71.80
2036;BME280;23642;42.658;23.350;2022-10-31T05:45:10;54745.50;;;-146.31;73.02
2036;BME280;23642;42.658;23.350;2022-10-31T05:47:39;54731.06;;;-146.31;72.58
2036;BME280;23642;42.658;23.350;2022-10-31T05:50:06;54724.84;;;-146.31;73.35
2036;BME280;23642;42.658;23.350;2022-10-31T05:52:33;54716.59;;;-146.31;73.41
2036;BME280;23642;42.658;23.350;2022-10-31T05:55:00;54714.53;;;-146.31;73.95
2036;BME280;23642;42.658;23.350;2022-10-31T05:57:28;54693.88;;;-146.31;74.64
2036;BME280;23642;42.658;23.350;2022-10-31T05:59:55;54700.06;;;-146.31;75.24
2036;BME280;23642;42.658;23.350;2022-10-31T06:02:22;54679.44;;;-146.31;75.02
2036;BME280;23642;42.658;23.350;2022-10-31T06:04:50;54675.28;;;-146.31;75.23
2036;BME280;23642;42.658;23.350;2022-10-31T06:07:19;54673.22;;;-146.31;75.48
2036;BME280;23642;42.658;23.350;2022-10-31T06:09:46;54654.66;;;-146.31;75.28
2036;BME280;23642;42.658;23.350;2022-10-31T06:12:13;54646.38;;;-146.31;74.70
2036;BME280;23642;42.658;23.350;2022-10-31T06:14:39;54646.38;;;-146.31;72.86
2036;BME280;23642;42.658;23.350;2022-10-31T06:17:06;54625.75;;;-146.31;72.59
2036;BME280;23642;42.658;23.350;2022-10-31T06:19:33;54629.88;;;-146.31;73.02
2036;BME280;23642;42.658;23.350;2022-10-31T06:22:01;54613.34;;;-146.31;73.32
2036;BME280;23642;42.658;23.350;2022-10-31T06:24:28;54596.81;;;-146.31;73.15
2036;BME280;23642;42.658;23.350;2022-10-31T06:26:55;54596.81;;;-146.31;71.01
2036;BME280;23642;42.658;23.350;2022-10-31T06:29:22;54588.56;;;-146.31;70.13
2036;BME280;23642;42.658;23.350;2022-10-31T06:31:51;54576.19;;;-146.31;69.72
2036;BME280;23642;42.658;23.350;2022-10-31T06:34:17;54586.50;;;-146.31;70.36
2036;BME280;23642;42.658;23.350;2022-10-31T06:36:45;54588.56;;;-146.31;70.23
2036;BME280;23642;42.658;23.350;2022-10-31T06:39:13;54551.41;;;-146.31;69.16
2036;BME280;23642;42.658;23.350;2022-10-31T06:41:40;54539.00;;;-146.31;68.04
2036;BME280;23642;42.658;23.350;2022-10-31T06:44:07;54545.19;;;-146.31;66.53
2036;BME280;23642;42.658;23.350;2022-10-31T06:46:34;54539.00;;;-146.31;65.97
2036;BME280;23642;42.658;23.350;2022-10-31T06:49:01;54547.28;;;-146.31;65.43
2036;BME280;23642;42.658;23.350;2022-10-31T06:51:28;54555.53;;;-146.31;65.39
2036;BME280;23642;42.658;23.350;2022-10-31T06:53:54;54518.38;;;-146.31;65.21
2036;BME280;23642;42.658;23.350;2022-10-31T06:56:22;54520.44;;;-146.31;64.57
2036;BME280;23642;42.658;23.350;2022-10-31T06:58:49;54514.22;;;-146.31;64.13
2036;BME280;23642;42.658;23.350;2022-10-31T07:01:16;54503.91;;;-146.31;64.68
2036;BME280;23642;42.658;23.350;2022-10-31T07:03:42;54499.78;;;-146.31;64.47
2036;BME280;23642;42.658;23.350;2022-10-31T07:06:09;54495.66;;;-146.31;63.91
2036;BME280;23642;42.658;23.350;2022-10-31T07:08:36;54499.78;;;-146.31;64.05
2036;BME280;23642;42.658;23.350;2022-10-31T07:11:03;54495.66;;;-146.31;63.35
2036;BME280;23642;42.658;23.350;2022-10-31T07:13:31;54503.91;;;-146.31;63.01
2036;BME280;23642;42.658;23.350;2022-10-31T07:16:00;54460.53;;;-146.31;62.33
2036;BME280;23642;42.658;23.350;2022-10-31T07:18:27;54466.75;;;-146.31;62.06
2036;BME280;23642;42.658;23.350;2022-10-31T07:20:54;54485.31;;;-146.31;61.92
2036;BME280;23642;42.658;23.350;2022-10-31T07:23:21;54508.03;;;-146.31;62.26
2036;BME280;23642;42.658;23.350;2022-10-31T07:25:55;54472.94;;;-146.31;62.28
2036;BME280;23642;42.658;23.350;2022-10-31T07:28:22;54487.38;;;-146.31;62.04
2036;BME280;23642;42.658;23.350;2022-10-31T07:30:51;54485.31;;;-146.31;61.88
2036;BME280;23642;42.658;23.350;2022-10-31T07:33:18;54466.75;;;-146.31;62.05
2036;BME280;23642;42.658;23.350;2022-10-31T07:35:45;54448.16;;;-146.31;61.07
2036;BME280;23642;42.658;23.350;2022-10-31T07:38:13;54448.16;;;-146.31;60.48
2036;BME280;23642;42.658;23.350;2022-10-31T07:40:41;54458.47;;;-146.31;60.96
2036;BME280;23642;42.658;23.350;2022-10-31T07:43:08;54454.34;;;-146.31;60.23
2036;BME280;23642;42.658;23.350;2022-10-31T07:45:35;54415.13;;;-146.31;59.58
2036;BME280;23642;42.658;23.350;2022-10-31T07:48:03;54398.59;;;-146.31;59.58
2036;BME280;23642;42.658;23.350;2022-10-31T07:50:31;54404.78;;;-146.31;59.50
2036;BME280;23642;42.658;23.350;2022-10-31T07:53:00;54415.13;;;-146.31;59.66
2036;BME280;23642;42.658;23.350;2022-10-31T07:55:28;54392.41;;;-146.31;59.31
2036;BME280;23642;42.658;23.350;2022-10-31T08:08:29;54439.91;;;-146.31;58.56
2036;BME280;23642;42.658;23.350;2022-10-31T08:11:12;54404.78;;;-146.31;58.10
2036;BME280;23642;42.658;23.350;2022-10-31T08:13:39;54429.56;;;-146.31;57.91
2036;BME280;23642;42.658;23.350;2022-10-31T08:19:40;54396.53;;;-146.31;57.37
2036;BME280;23642;42.658;23.350;2022-10-31T08:22:09;54361.44;;;-146.31;56.71
2036;BME280;23642;42.658;23.350;2022-10-31T08:24:37;54373.81;;;-146.31;56.33
2036;BME280;23642;42.658;23.350;2022-10-31T08:27:04;54373.81;;;-146.31;56.62
2036;BME280;23642;42.658;23.350;2022-10-31T08:29:34;54359.38;;;-146.31;55.87
2036;BME280;23642;42.658;23.350;2022-10-31T08:32:00;54365.56;;;-146.31;56.36
2036;BME280;23642;42.658;23.350;2022-10-31T08:34:33;54373.81;;;-146.31;56.43
2036;BME280;23642;42.658;23.350;2022-10-31T08:37:00;54373.81;;;-146.31;56.49
2036;BME280;23642;42.658;23.350;2022-10-31T08:39:26;54369.69;;;-146.31;56.09
2036;BME280;23642;42.658;23.350;2022-10-31T08:41:55;54342.84;;;-146.31;56.16
2036;BME280;23642;42.658;23.350;2022-10-31T08:44:21;54353.19;;;-146.31;55.51
2036;BME280;23642;42.658;23.350;2022-10-31T08:46:48;54316.00;;;-146.31;56.00
2036;BME280;23642;42.658;23.350;2022-10-31T08:49:15;54344.91;;;-146.31;55.21
2036;BME280;23642;42.658;23.350;2022-10-31T08:51:41;54349.03;;;-146.31;55.06
2036;BME280;23642;42.658;23.350;2022-10-31T08:54:11;54320.13;;;-146.31;55.23
2036;BME280;23642;42.658;23.350;2022-10-31T08:56:38;54272.66;;;-146.31;54.18
2036;BME280;23642;42.658;23.350;2022-10-31T08:59:06;54299.50;;;-146.31;54.43
2036;BME280;23642;42.658;23.350;2022-10-31T09:01:33;54311.88;;;-146.31;54.27
2036;BME280;23642;42.658;23.350;2022-10-31T09:03:59;54282.97;;;-146.31;53.52
2036;BME280;23642;42.658;23.350;2022-10-31T09:06:28;54309.81;;;-146.31;54.14
2036;BME280;23642;42.658;23.350;2022-10-31T09:08:54;54334.59;;;-146.31;54.13
2036;BME280;23642;42.658;23.350;2022-10-31T09:11:23;54301.56;;;-146.31;53.83
2036;BME280;23642;42.658;23.350;2022-10-31T09:13:49;54305.69;;;-146.31;53.34
2036;BME280;23642;42.658;23.350;2022-10-31T09:16:22;54272.66;;;-146.31;53.63
2036;BME280;23642;42.658;23.350;2022-10-31T09:18:49;54278.84;;;-146.31;53.04
2036;BME280;23642;42.658;23.350;2022-10-31T09:21:18;54287.09;;;-146.31;52.73
2036;BME280;23642;42.658;23.350;2022-10-31T09:23:46;54249.94;;;-146.31;52.48
2036;BME280;23642;42.658;23.350;2022-10-31T09:26:13;54276.78;;;-146.31;52.66
2036;BME280;23642;42.658;23.350;2022-10-31T09:28:48;54258.19;;;-146.31;52.90
2036;BME280;23642;42.658;23.350;2022-10-31T09:31:18;54237.53;;;-146.31;52.15
2036;BME280;23642;42.658;23.350;2022-10-31T09:33:45;54225.16;;;-146.31;51.89
2036;BME280;23642;42.658;23.350;2022-10-31T09:36:12;54208.63;;;-146.31;51.35
2036;BME280;23642;42.658;23.350;2022-10-31T09:38:39;54227.22;;;-146.31;51.58
2036;BME280;23642;42.658;23.350;2022-10-31T09:41:16;54221.03;;;-146.31;51.46
2036;BME280;23642;42.658;23.350;2022-10-31T09:43:50;54198.31;;;-146.31;51.36
2036;BME280;23642;42.658;23.350;2022-10-31T09:46:26;54204.50;;;-146.31;51.00
2036;BME280;23642;42.658;23.350;2022-10-31T09:49:12;54171.47;;;-146.31;50.88
2036;BME280;23642;42.658;23.350;2022-10-31T09:51:47;54208.63;;;-146.31;50.88
2036;BME280;23642;42.658;23.350;2022-10-31T09:54:20;54204.50;;;-146.31;50.92
2036;BME280;23642;42.658;23.350;2022-10-31T09:56:48;54179.75;;;-146.31;51.23
2036;BME280;23642;42.658;23.350;2022-10-31T09:59:26;54179.75;;;-146.31;50.95
2036;BME280;23642;42.658;23.350;2022-10-31T10:02:00;54192.13;;;-146.31;50.47
2036;BME280;23642;42.658;23.350;2022-10-31T10:04:35;54196.25;;;-146.31;50.02
2036;BME280;23642;42.658;23.350;2022-10-31T10:07:13;54204.50;;;-146.31;49.52
2036;BME280;23642;42.658;23.350;2022-10-31T10:09:44;54202.44;;;-146.31;49.84
2036;BME280;23642;42.658;23.350;2022-10-31T10:12:17;54225.16;;;-146.31;49.21
2036;BME280;23642;42.658;23.350;2022-10-31T10:14:54;54192.13;;;-146.31;48.82
2036;BME280;23642;42.658;23.350;2022-10-31T10:17:35;54231.34;;;-146.31;48.42
2036;BME280;23642;42.658;23.350;2022-10-31T10:20:16;54185.94;;;-146.31;47.42
2036;BME280;23642;42.658;23.350;2022-10-31T10:22:52;54204.50;;;-146.31;47.42
2036;BME280;23642;42.658;23.350;2022-10-31T10:25:23;54192.13;;;-146.31;46.81
2036;BME280;23642;42.658;23.350;2022-10-31T10:28:02;54173.53;;;-146.31;46.58
2036;BME280;23642;42.658;23.350;2022-10-31T10:30:34;54204.50;;;-146.31;45.47
2036;BME280;23642;42.658;23.350;2022-10-31T10:33:08;54293.28;;;-146.31;45.23
2036;BME280;23642;42.658;23.350;2022-10-31T10:35:39;54334.59;;;-146.31;45.64
2036;BME280;23642;42.658;23.350;2022-10-31T10:38:16;54355.25;;;-146.31;45.63
2036;BME280;23642;42.658;23.350;2022-10-31T10:40:44;54361.44;;;-146.31;45.44
2036;BME280;23642;42.658;23.350;2022-10-31T10:43:21;54340.78;;;-146.31;45.65
2036;BME280;23642;42.658;23.350;2022-10-31T10:45:52;54351.09;;;-146.31;45.55
2036;BME280;23642;42.658;23.350;2022-10-31T10:48:42;54336.66;;;-146.31;44.79
2036;BME280;23642;42.658;23.350;2022-10-31T10:51:20;54324.28;;;-146.31;44.01
2036;BME280;23642;42.658;23.350;2022-10-31T10:54:01;54433.69;;;-146.31;43.16
2036;BME280;23642;42.658;23.350;2022-10-31T10:56:42;54470.88;;;-146.31;43.17
2036;BME280;23642;42.658;23.350;2022-10-31T10:59:15;54458.47;;;-146.31;43.02
2036;BME280;23642;42.658;23.350;2022-10-31T11:01:43;54435.75;;;-146.31;42.23
2036;BME280;23642;42.658;23.350;2022-10-31T11:04:24;54441.97;;;-146.31;42.67
2036;BME280;23642;42.658;23.350;2022-10-31T11:06:59;54411.00;;;-146.31;42.13
2036;BME280;23642;42.658;23.350;2022-10-31T11:09:27;54427.50;;;-146.31;42.05
2036;BME280;23642;42.658;23.350;2022-10-31T11:11:54;54441.97;;;-146.31;41.57
2036;BME280;23642;42.658;23.350;2022-10-31T11:14:25;54411.00;;;-146.31;42.17
2036;BME280;23642;42.658;23.350;2022-10-31T11:17:06;54390.34;;;-146.31;41.51
2036;BME280;23642;42.658;23.350;2022-10-31T11:19:36;54417.19;;;-146.31;41.57
2036;BME280;23642;42.658;23.350;2022-10-31T11:22:07;54427.50;;;-146.31;41.52
2036;BME280;23642;42.658;23.350;2022-10-31T11:24:38;54421.31;;;-146.31;41.50
2036;BME280;23642;42.658;23.350;2022-10-31T11:27:14;54475.00;;;-146.31;41.48
2036;BME280;23642;42.658;23.350;2022-10-31T11:29:41;54460.53;;;-146.31;41.53
2036;BME280;23642;42.658;23.350;2022-10-31T11:32:18;54411.00;;;-146.31;40.86
2036;BME280;23642;42.658;23.350;2022-10-31T11:34:48;54415.13;;;-146.31;40.71
2036;BME280;23642;42.658;23.350;2022-10-31T11:37:19;54439.91;;;-146.31;40.54
2036;BME280;23642;42.658;23.350;2022-10-31T11:39:51;54456.41;;;-146.31;40.61
2036;BME280;23642;42.658;23.350;2022-10-31T11:42:21;54431.63;;;-146.31;40.54
2036;BME280;23642;42.658;23.350;2022-10-31T11:44:50;54427.50;;;-146.31;40.67
2036;BME280;23642;42.658;23.350;2022-10-31T11:47:22;54472.94;;;-146.31;40.84
2036;BME280;23642;42.658;23.350;2022-10-31T11:49:54;54394.47;;;-146.31;40.58
2036;BME280;23642;42.658;23.350;2022-10-31T11:52:24;54431.63;;;-146.31;40.52
2036;BME280;23642;42.658;23.350;2022-10-31T11:54:54;54460.53;;;-146.31;40.62
2036;BME280;23642;42.658;23.350;2022-10-31T11:57:26;54493.59;;;-146.31;40.71
2036;BME280;23642;42.658;23.350;2022-10-31T11:59:58;54454.34;;;-146.31;40.54
2036;BME280;23642;42.658;23.350;2022-10-31T12:02:25;54439.91;;;-146.31;40.49
2036;BME280;23642;42.658;23.350;2022-10-31T12:05:00;54446.09;;;-146.31;40.06
2036;BME280;23642;42.658;23.350;2022-10-31T12:07:38;54503.91;;;-146.31;40.49
2036;BME280;23642;42.658;23.350;2022-10-31T12:10:10;54510.09;;;-146.31;40.90
2036;BME280;23642;42.658;23.350;2022-10-31T12:12:52;54505.97;;;-146.31;40.94
2036;BME280;23642;42.658;23.350;2022-10-31T12:15:31;54489.44;;;-146.31;41.09
2036;BME280;23642;42.658;23.350;2022-10-31T12:18:16;54481.19;;;-146.31;40.62
2036;BME280;23642;42.658;23.350;2022-10-31T12:20:56;54514.22;;;-146.31;40.59
2036;BME280;23642;42.658;23.350;2022-10-31T12:23:36;54505.97;;;-146.31;40.99
2036;BME280;23642;42.658;23.350;2022-10-31T12:26:12;54520.44;;;-146.31;41.19
2036;BME280;23642;42.658;23.350;2022-10-31T12:28:56;54536.94;;;-146.31;40.87
2036;BME280;23642;42.658;23.350;2022-10-31T12:31:46;54530.75;;;-146.31;40.75
2036;BME280;23642;42.658;23.350;2022-10-31T12:34:48;54477.06;;;-146.31;40.90
2036;BME280;23642;42.658;23.350;2022-10-31T12:37:29;54483.25;;;-146.31;40.16
2036;BME280;23642;42.658;23.350;2022-10-31T12:40:31;54444.03;;;-146.31;39.92
2036;BME280;23642;42.658;23.350;2022-10-31T12:43:11;54444.03;;;-146.31;39.74
2036;BME280;23642;42.658;23.350;2022-10-31T12:45:52;54448.16;;;-146.31;39.54
2036;BME280;23642;42.658;23.350;2022-10-31T12:48:37;54448.16;;;-146.31;39.68
2036;BME280;23642;42.658;23.350;2022-10-31T12:51:13;54423.38;;;-146.31;39.15
2036;BME280;23642;42.658;23.350;2022-10-31T12:53:53;54421.31;;;-146.31;39.24
2036;BME280;23642;42.658;23.350;2022-10-31T12:56:36;54402.72;;;-146.31;39.48
2036;BME280;23642;42.658;23.350;2022-10-31T12:59:12;54369.69;;;-146.31;38.12
2036;BME280;23642;42.658;23.350;2022-10-31T13:01:46;54390.34;;;-146.31;38.41
2036;BME280;23642;42.658;23.350;2022-10-31T13:04:21;54382.09;;;-146.31;37.99
2036;BME280;23642;42.658;23.350;2022-10-31T13:06:55;54390.34;;;-146.31;38.36
2036;BME280;23642;42.658;23.350;2022-10-31T13:09:29;54375.88;;;-146.31;38.77
2036;BME280;23642;42.658;23.350;2022-10-31T13:12:02;54423.38;;;-146.31;38.62